Time;durP1;ratioP1;P1;durP2;ratioP2;P2;SDS_P1;SDS_P2;PMS_P1;PMS_P2;Temp;Humidity;BMP_temperature;BMP_pressure;BME280_temperature;BME280_humidity;BME280_pressure;Samples;Min_cycle;Max_cycle;Signal;HPM_P1;HPM_P2
2023/02/11 00:00:38;;;;;;;;;;;;;;;-0.25;81.59;102622.69;5059573;28;19917;-90
2023/02/11 00:03:03;;;;;;;;;;;;;;;-0.17;82.31;102614.72;5056056;28;19917;-90
2023/02/11 00:05:32;;;;;;;;;;;;;;;-0.08;82.40;102611.09;5058943;28;19984;-92
2023/02/11 00:07:57;;;;;;;;;;;;;;;0.03;82.26;102610.88;5060169;28;19987;-92
2023/02/11 00:10:23;;;;;;;;;;;;;;;0.12;83.12;102606.34;5059588;28;19917;-94
2023/02/11 00:12:48;;;;;;;;;;;;;;;0.15;82.20;102606.25;5061437;28;19998;-92
2023/02/11 00:15:14;;;;;;;;;;;;;;;0.24;81.80;102604.31;5060790;28;20341;-91
2023/02/11 00:17:39;;;;;;;;;;;;;;;0.35;81.26;102602.34;5060164;28;19921;-93
2023/02/11 00:20:05;;;;;;;;;;;;;;;0.46;81.72;102600.38;5057164;28;19917;-92
2023/02/11 00:22:30;;;;;;;;;;;;;;;0.58;81.46;102604.44;5059385;28;19985;-90
2023/02/11 00:24:56;;;;;;;;;;;;;;;0.65;81.59;102600.78;5060413;28;19947;-91
2023/02/11 00:27:21;;;;;;;;;;;;;;;0.75;81.13;102597.06;5058817;28;20388;-92
2023/02/11 00:29:46;;;;;;;;;;;;;;;0.84;80.78;102601.19;5058699;28;20446;-91
2023/02/11 00:32:12;;;;;;;;;;;;;;;0.89;80.64;102608.91;5058008;28;19924;-94
2023/02/11 00:34:37;;;;;;;;;;;;;;;0.90;80.52;102594.97;5057733;28;19960;-92
2023/02/11 00:37:03;;;;;;;;;;;;;;;0.90;80.66;102602.78;5059748;28;20269;-92
2023/02/11 00:39:29;;;;;;;;;;;;;;;0.89;80.02;102608.91;5059030;28;19920;-91
2023/02/11 00:41:54;;;;;;;;;;;;;;;0.89;80.22;102603.69;5059524;28;20012;-92
2023/02/11 00:44:20;;;;;;;;;;;;;;;0.88;80.21;102600.19;5059175;28;19909;-91
2023/02/11 00:46:45;;;;;;;;;;;;;;;0.85;80.62;102597.69;5058407;28;19948;-91
2023/02/11 00:49:11;;;;;;;;;;;;;;;0.84;80.00;102596.84;5061019;28;19917;-92
2023/02/11 00:51:42;;;;;;;;;;;;;;;0.83;80.06;102589.94;5065106;28;19916;-93
2023/02/11 00:54:07;;;;;;;;;;;;;;;0.83;80.22;102591.66;5062239;28;19924;-91
2023/02/11 00:56:34;;;;;;;;;;;;;;;0.83;80.06;102589.06;5060275;28;19916;-92
2023/02/11 00:59:00;;;;;;;;;;;;;;;0.82;80.13;102600.38;5059884;28;19927;-88
2023/02/11 01:01:25;;;;;;;;;;;;;;;0.80;80.59;102609.97;5059103;28;20015;-88
2023/02/11 01:03:51;;;;;;;;;;;;;;;0.77;80.07;102605.69;5057932;28;19921;-89
2023/02/11 01:06:16;;;;;;;;;;;;;;;0.76;80.16;102598.78;5058848;28;19917;-88
2023/02/11 01:08:42;;;;;;;;;;;;;;;0.77;79.87;102604.84;5038861;28;19917;-89
2023/02/11 01:11:12;;;;;;;;;;;;;;;0.76;80.05;102598.78;5040049;28;19921;-89
2023/02/11 01:13:38;;;;;;;;;;;;;;;0.77;80.20;102603.09;5043934;28;19945;-88
2023/02/11 01:16:06;;;;;;;;;;;;;;;0.80;79.86;102602.16;5036103;28;19917;-89
2023/02/11 01:18:31;;;;;;;;;;;;;;;0.82;80.18;102587.34;5036456;28;20000;-90
2023/02/11 01:20:56;;;;;;;;;;;;;;;0.86;79.98;102589.00;5035329;28;19968;-89
2023/02/11 01:23:22;;;;;;;;;;;;;;;0.87;79.89;102590.69;5035937;28;19996;-90
2023/02/11 01:25:47;;;;;;;;;;;;;;;0.93;79.81;102589.66;5035183;28;19929;-87
2023/02/11 01:28:20;;;;;;;;;;;;;;;0.99;79.87;102592.97;5035030;28;20000;-89
2023/02/11 01:30:45;;;;;;;;;;;;;;;1.05;79.57;102589.38;5040886;28;19967;-90
2023/02/11 01:33:13;;;;;;;;;;;;;;;1.10;79.55;102591.84;5053998;28;19925;-87
2023/02/11 01:35:39;;;;;;;;;;;;;;;1.15;79.50;102585.63;5054508;28;19925;-89
2023/02/11 01:38:05;;;;;;;;;;;;;;;1.22;79.32;102586.34;5056528;28;19916;-87
2023/02/11 01:40:31;;;;;;;;;;;;;;;1.26;79.38;102567.97;5057302;28;20251;-88
2023/02/11 01:42:56;;;;;;;;;;;;;;;1.30;79.45;102573.94;5063732;28;20030;-89
2023/02/11 01:45:40;;;;;;;;;;;;;;;1.34;79.05;102561.69;5075180;28;20389;-87
2023/02/11 01:48:06;;;;;;;;;;;;;;;1.36;78.88;102562.47;5046007;28;19924;-89
2023/02/11 01:50:32;;;;;;;;;;;;;;;1.37;78.80;102559.84;5048589;28;19917;-88
2023/02/11 01:57:20;;;;;;;;;;;;;;;1.38;78.97;102556.34;5054562;28;19917;-88
2023/02/11 01:58:28;;;;;;;;;;;;;;;1.43;78.78;102554.47;5060050;28;20281;-92
2023/02/11 02:01:03;;;;;;;;;;;;;;;1.45;78.83;102544.88;5059183;28;19971;-91
2023/02/11 02:03:30;;;;;;;;;;;;;;;1.45;78.54;102543.97;5058918;28;19917;-91
2023/02/11 02:06:06;;;;;;;;;;;;;;;1.44;78.34;102542.28;5058553;28;19925;-92
2023/02/11 02:08:38;;;;;;;;;;;;;;;1.41;78.67;102535.41;5057689;28;19924;-91
2023/02/11 02:11:04;;;;;;;;;;;;;;;1.39;78.55;102524.16;5049856;28;19916;-91
2023/02/11 02:13:31;;;;;;;;;;;;;;;1.38;78.55;102527.69;5057465;28;19948;-91
2023/02/11 02:15:58;;;;;;;;;;;;;;;1.33;78.96;102524.31;5058122;28;19917;-89
2023/02/11 02:18:41;;;;;;;;;;;;;;;1.34;78.64;102518.22;5057916;28;19917;-90
2023/02/11 02:21:18;;;;;;;;;;;;;;;1.35;78.50;102509.50;5059206;28;19940;-91
2023/02/11 02:23:52;;;;;;;;;;;;;;;1.32;78.96;102517.41;5058406;28;20333;-91
2023/02/11 02:26:35;;;;;;;;;;;;;;;1.35;78.90;102506.91;5058912;28;19940;-90
2023/02/11 02:29:16;;;;;;;;;;;;;;;1.39;79.03;102507.69;5058740;28;19916;-91
2023/02/11 02:32:02;;;;;;;;;;;;;;;1.42;78.72;102505.81;5057899;28;19923;-91
2023/02/11 02:34:57;;;;;;;;;;;;;;;1.44;79.00;102503.19;5057655;28;19923;-92
2023/02/11 02:37:29;;;;;;;;;;;;;;;1.47;78.52;102503.09;5044274;28;19945;-90
2023/02/11 02:39:56;;;;;;;;;;;;;;;1.49;78.73;102498.69;5058641;28;20397;-91
2023/02/11 02:42:24;;;;;;;;;;;;;;;1.48;78.76;102491.78;5055895;28;20263;-91
2023/02/11 02:44:51;;;;;;;;;;;;;;;1.47;78.61;102490.06;5056874;28;19921;-90
2023/02/11 02:47:16;;;;;;;;;;;;;;;1.44;78.82;102492.75;5058146;28;20571;-90
2023/02/11 02:49:42;;;;;;;;;;;;;;;1.43;78.42;102496.25;5057153;28;19917;-91
2023/02/11 02:52:28;;;;;;;;;;;;;;;1.40;78.17;102494.59;5056693;28;19917;-91
2023/02/11 02:55:00;;;;;;;;;;;;;;;1.35;78.61;102487.81;5057769;28;19916;-94
2023/02/11 02:57:29;;;;;;;;;;;;;;;1.36;78.50;102482.56;5057481;28;19917;-91
2023/02/11 03:00:00;;;;;;;;;;;;;;;1.32;78.70;102478.31;5057824;28;19921;-91
2023/02/11 03:02:26;;;;;;;;;;;;;;;1.31;78.78;102497.47;5057143;28;19917;-91
2023/02/11 03:04:58;;;;;;;;;;;;;;;1.28;78.94;102492.34;5057038;28;20603;-91
2023/02/11 03:07:42;;;;;;;;;;;;;;;1.28;78.93;102482.75;5055784;28;19933;-91
2023/02/11 03:10:09;;;;;;;;;;;;;;;1.28;78.95;102487.13;5056135;28;19917;-92
2023/02/11 03:12:36;;;;;;;;;;;;;;;1.27;79.00;102493.25;5057237;28;20370;-92
2023/02/11 03:15:04;;;;;;;;;;;;;;;1.26;78.65;102492.41;5056783;28;19982;-91
2023/02/11 03:17:30;;;;;;;;;;;;;;;1.25;79.17;102490.66;5058104;28;19921;-91
2023/02/11 03:19:57;;;;;;;;;;;;;;;1.27;78.96;102501.06;5056817;28;19943;-91
2023/02/11 03:22:52;;;;;;;;;;;;;;;1.28;79.03;102495.78;5056740;28;19917;-92
2023/02/11 03:25:18;;;;;;;;;;;;;;;1.29;78.51;102507.09;5045871;28;20259;-90
2023/02/11 03:28:04;;;;;;;;;;;;;;;1.29;78.66;102512.31;5058603;28;19921;-91
2023/02/11 03:30:56;;;;;;;;;;;;;;;1.28;78.71;102511.41;5056661;28;19923;-91
2023/02/11 03:33:26;;;;;;;;;;;;;;;1.31;78.57;102507.03;5055901;28;19925;-91
2023/02/11 03:36:14;;;;;;;;;;;;;;;1.31;78.87;102507.03;5059118;28;19921;-91
2023/02/11 03:38:44;;;;;;;;;;;;;;;1.32;78.50;102507.00;5059466;28;19917;-91
2023/02/11 03:41:10;;;;;;;;;;;;;;;1.34;78.54;102499.16;5059254;28;19920;-91
2023/02/11 03:43:50;;;;;;;;;;;;;;;1.33;79.17;102494.81;5060174;28;19924;-91
2023/02/11 03:46:18;;;;;;;;;;;;;;;1.32;78.88;102483.53;5058039;28;19917;-91
2023/02/11 03:48:47;;;;;;;;;;;;;;;1.35;78.67;102480.84;5058556;28;19917;-91
2023/02/11 03:51:13;;;;;;;;;;;;;;;1.36;78.92;102474.75;5058807;28;19924;-91
2023/02/11 03:53:40;;;;;;;;;;;;;;;1.40;78.97;102471.13;5071519;28;19901;-92
2023/02/11 03:56:08;;;;;;;;;;;;;;;1.48;78.54;102476.13;5075308;28;19909;-93
2023/02/11 03:58:33;;;;;;;;;;;;;;;1.51;78.66;102485.63;5065083;28;19942;-90
2023/02/11 04:01:00;;;;;;;;;;;;;;;1.52;78.49;102484.72;5066522;28;19943;-92
2023/02/11 04:03:25;;;;;;;;;;;;;;;1.54;78.69;102485.53;5074471;28;19966;-93
2023/02/11 04:05:53;;;;;;;;;;;;;;;1.54;78.56;102478.53;5069523;28;19967;-91
2023/02/11 04:08:19;;;;;;;;;;;;;;;1.56;78.44;102478.50;5065427;28;20118;-90
2023/02/11 04:10:44;;;;;;;;;;;;;;;1.55;78.68;102482.00;5064179;28;19916;-91
2023/02/11 04:13:10;;;;;;;;;;;;;;;1.56;78.42;102473.28;5062625;28;19923;-91
2023/02/11 04:15:35;;;;;;;;;;;;;;;1.55;78.33;102463.75;5060224;28;19916;-89
2023/02/11 04:18:02;;;;;;;;;;;;;;;1.56;78.43;102462.88;5057723;28;19942;-88
2023/02/11 04:20:27;;;;;;;;;;;;;;;1.53;78.47;102457.75;5055771;28;19917;-89
2023/02/11 04:22:52;;;;;;;;;;;;;;;1.53;78.50;102462.97;5055164;28;19940;-90
2023/02/11 04:25:18;;;;;;;;;;;;;;;1.49;78.48;102455.22;5056196;28;19927;-88
2023/02/11 04:27:43;;;;;;;;;;;;;;;1.45;78.18;102447.53;5056382;28;19917;-88
2023/02/11 04:30:09;;;;;;;;;;;;;;;1.40;78.34;102439.00;5055839;28;19921;-88
2023/02/11 04:32:34;;;;;;;;;;;;;;;1.36;78.54;102429.56;5057015;28;19921;-88
2023/02/11 04:35:01;;;;;;;;;;;;;;;1.32;78.58;102425.34;5056918;28;19942;-88
2023/02/11 04:37:26;;;;;;;;;;;;;;;1.29;78.64;102423.69;5056230;28;19917;-88
2023/02/11 04:39:51;;;;;;;;;;;;;;;1.24;78.91;102428.16;5055449;28;19996;-88
2023/02/11 04:42:17;;;;;;;;;;;;;;;1.22;79.00;102416.94;5065442;28;19916;-89
2023/02/11 04:44:42;;;;;;;;;;;;;;;1.18;78.65;102425.75;5056233;28;19921;-88
2023/02/11 04:47:07;;;;;;;;;;;;;;;1.13;78.97;102417.22;5055388;28;19917;-88
2023/02/11 04:49:35;;;;;;;;;;;;;;;1.05;79.44;102433.91;5055656;28;20453;-89
2023/02/11 04:52:00;;;;;;;;;;;;;;;1.03;79.56;102440.94;5048675;28;19921;-88
2023/02/11 04:54:26;;;;;;;;;;;;;;;1.00;79.79;102443.63;5045717;28;19974;-89
2023/02/11 04:56:51;;;;;;;;;;;;;;;0.96;79.78;102447.19;5056540;28;20410;-89
2023/02/11 04:59:16;;;;;;;;;;;;;;;0.94;79.67;102451.59;5054961;28;19917;-89
2023/02/11 05:01:42;;;;;;;;;;;;;;;0.91;79.28;102451.69;5054931;28;19924;-89
2023/02/11 05:04:07;;;;;;;;;;;;;;;0.87;79.38;102455.25;5068261;28;19920;-89
2023/02/11 05:06:32;;;;;;;;;;;;;;;0.81;79.27;102445.88;5075226;28;19999;-90
2023/02/11 05:08:58;;;;;;;;;;;;;;;0.77;79.41;102448.59;5076167;28;20133;-89
2023/02/11 05:11:24;;;;;;;;;;;;;;;0.70;79.75;102450.50;5064490;28;19970;-90
2023/02/11 05:13:50;;;;;;;;;;;;;;;0.66;79.93;102466.25;5044004;28;20302;-88
2023/02/11 05:16:16;;;;;;;;;;;;;;;0.61;80.87;102464.63;5034673;28;19921;-89
2023/02/11 05:18:41;;;;;;;;;;;;;;;0.61;80.42;102467.22;5035751;28;20004;-88
2023/02/11 05:21:11;;;;;;;;;;;;;;;0.59;80.04;102474.22;5036283;28;19967;-88
2023/02/11 05:23:37;;;;;;;;;;;;;;;0.59;79.94;102481.16;5035876;28;20004;-89
2023/02/11 05:26:03;;;;;;;;;;;;;;;0.59;80.13;102482.00;5035862;28;19969;-89
2023/02/11 05:28:29;;;;;;;;;;;;;;;0.61;80.26;102482.00;5036360;28;19931;-88
2023/02/11 05:30:54;;;;;;;;;;;;;;;0.63;80.59;102473.25;5052300;28;20348;-89
2023/02/11 05:33:20;;;;;;;;;;;;;;;0.67;80.96;102450.59;5057874;28;19946;-89
2023/02/11 05:35:45;;;;;;;;;;;;;;;0.74;80.23;102438.25;5075578;28;19917;-89
2023/02/11 05:38:11;;;;;;;;;;;;;;;0.77;80.65;102443.41;5074770;28;19970;-89
2023/02/11 05:40:36;;;;;;;;;;;;;;;0.83;80.29;102440.59;5053955;28;20554;-89
2023/02/11 05:43:01;;;;;;;;;;;;;;;0.85;80.58;102436.22;5054375;28;19939;-88
2023/02/11 05:45:27;;;;;;;;;;;;;;;0.89;80.24;102440.44;5046078;28;20149;-89
2023/02/11 05:47:52;;;;;;;;;;;;;;;0.91;80.47;102440.44;5040149;28;19917;-89
2023/02/11 05:50:17;;;;;;;;;;;;;;;0.91;80.68;102441.28;5053071;28;19928;-88
2023/02/11 05:52:43;;;;;;;;;;;;;;;0.93;80.04;102434.28;5051102;28;19921;-89
2023/02/11 05:55:08;;;;;;;;;;;;;;;0.96;80.04;102447.19;5060407;28;19928;-87
2023/02/11 05:57:34;;;;;;;;;;;;;;;0.97;80.08;102446.28;5038441;28;19924;-89
2023/02/11 05:59:59;;;;;;;;;;;;;;;0.99;80.31;102443.66;5041057;28;19936;-90
2023/02/11 06:02:24;;;;;;;;;;;;;;;1.04;80.64;102436.56;5075770;28;20204;-88
2023/02/11 06:04:50;;;;;;;;;;;;;;;1.03;80.23;102427.91;5079361;28;19920;-88
2023/02/11 06:07:16;;;;;;;;;;;;;;;1.05;80.42;102436.53;5076816;28;20057;-88
2023/02/11 06:09:41;;;;;;;;;;;;;;;1.07;80.40;102441.69;5039150;28;19921;-89
2023/02/11 06:12:07;;;;;;;;;;;;;;;1.11;80.00;102445.06;5045772;28;19967;-89
2023/02/11 06:14:33;;;;;;;;;;;;;;;1.11;80.16;102440.69;5047388;28;19916;-88
2023/02/11 06:16:58;;;;;;;;;;;;;;;1.12;80.12;102433.72;5054326;28;19921;-89
2023/02/11 06:19:23;;;;;;;;;;;;;;;1.09;80.14;102423.41;5056803;28;19947;-88
2023/02/11 06:21:49;;;;;;;;;;;;;;;1.10;79.88;102425.97;5046687;28;20061;-89
2023/02/11 06:24:14;;;;;;;;;;;;;;;1.02;80.14;102431.38;5053900;28;19925;-88
2023/02/11 06:26:39;;;;;;;;;;;;;;;0.98;80.42;102424.56;5044866;28;19917;-89
2023/02/11 06:29:05;;;;;;;;;;;;;;;0.96;80.04;102431.56;5035681;28;19924;-89
2023/02/11 06:31:30;;;;;;;;;;;;;;;0.91;80.34;102428.25;5049383;28;19921;-89
2023/02/11 06:33:57;;;;;;;;;;;;;;;0.89;80.32;102437.84;5056127;28;19921;-89
2023/02/11 06:36:22;;;;;;;;;;;;;;;0.89;80.21;102447.41;5046919;28;19925;-89
2023/02/11 06:38:48;;;;;;;;;;;;;;;0.85;80.46;102447.47;5056813;28;20422;-90
2023/02/11 06:41:14;;;;;;;;;;;;;;;0.83;80.84;102448.41;5043847;28;20002;-87
2023/02/11 06:43:40;;;;;;;;;;;;;;;0.80;80.78;102441.56;5037573;28;19921;-89
2023/02/11 06:46:06;;;;;;;;;;;;;;;0.77;81.06;102448.59;5035508;28;19917;-91
2023/02/11 06:48:32;;;;;;;;;;;;;;;0.76;80.99;102452.97;5038203;28;20294;-88
2023/02/11 06:51:01;;;;;;;;;;;;;;;0.77;81.09;102451.22;5038041;28;19917;-89
2023/02/11 06:53:26;;;;;;;;;;;;;;;0.78;80.71;102445.09;5040328;28;20574;-90
2023/02/11 06:55:51;;;;;;;;;;;;;;;0.81;80.70;102445.00;5059059;28;19921;-89
2023/02/11 06:58:17;;;;;;;;;;;;;;;0.85;80.74;102457.06;5045796;28;20006;-89
2023/02/11 07:00:42;;;;;;;;;;;;;;;0.90;80.78;102459.53;5038172;28;19924;-88
2023/02/11 07:03:08;;;;;;;;;;;;;;;0.94;80.87;102451.59;5076171;28;19967;-87
2023/02/11 07:05:33;;;;;;;;;;;;;;;0.99;80.50;102459.28;5076448;28;19963;-89
2023/02/11 07:07:59;;;;;;;;;;;;;;;1.02;80.72;102453.97;5059430;28;20400;-89
2023/02/11 07:10:24;;;;;;;;;;;;;;;1.08;80.33;102459.03;5053759;28;19948;-87
2023/02/11 07:12:50;;;;;;;;;;;;;;;1.15;80.03;102459.72;5055476;28;20488;-89
2023/02/11 07:15:15;;;;;;;;;;;;;;;1.16;80.02;102453.59;5055330;28;20011;-87
2023/02/11 07:17:40;;;;;;;;;;;;;;;1.16;79.85;102448.38;5055871;28;20496;-88
2023/02/11 07:20:06;;;;;;;;;;;;;;;1.16;79.88;102451.84;5053970;28;19916;-88
2023/02/11 07:22:32;;;;;;;;;;;;;;;1.20;79.93;102457.84;5047850;28;19920;-88
2023/02/11 07:24:58;;;;;;;;;;;;;;;1.23;79.80;102455.13;5053587;28;19928;-88
2023/02/11 07:27:23;;;;;;;;;;;;;;;1.29;79.85;102460.19;5057678;28;19920;-88
2023/02/11 07:29:49;;;;;;;;;;;;;;;1.33;79.48;102453.97;5052128;28;19920;-89
2023/02/11 07:32:14;;;;;;;;;;;;;;;1.35;79.30;102454.78;5054440;28;19917;-89
2023/02/11 07:34:40;;;;;;;;;;;;;;;1.39;79.06;102452.94;5057599;28;19917;-89
2023/02/11 07:37:05;;;;;;;;;;;;;;;1.36;78.92;102453.88;5057412;28;19924;-90
2023/02/11 07:39:30;;;;;;;;;;;;;;;1.40;78.79;102458.09;5056534;28;19924;-89
2023/02/11 07:41:56;;;;;;;;;;;;;;;1.40;78.80;102462.47;5058153;28;19981;-89
2023/02/11 07:44:22;;;;;;;;;;;;;;;1.42;78.64;102474.53;5060520;28;19933;-89
2023/02/11 07:46:48;;;;;;;;;;;;;;;1.42;78.61;102466.72;5043082;28;19931;-90
2023/02/11 07:49:13;;;;;;;;;;;;;;;1.42;78.46;102477.16;5050558;28;19927;-90
2023/02/11 07:51:38;;;;;;;;;;;;;;;1.46;78.51;102476.16;5054600;28;19929;-89
2023/02/11 07:54:04;;;;;;;;;;;;;;;1.55;78.44;102479.38;5051907;28;20015;-89
2023/02/11 07:56:29;;;;;;;;;;;;;;;1.60;78.15;102467.94;5062594;28;19920;-88
2023/02/11 07:58:55;;;;;;;;;;;;;;;1.69;78.01;102475.50;5048865;28;20017;-90
2023/02/11 08:01:27;;;;;;;;;;;;;;;1.78;77.70;102479.56;5058559;28;19931;-90
2023/02/11 08:03:52;;;;;;;;;;;;;;;1.84;77.59;102475.94;5049580;28;19924;-90
2023/02/11 08:06:19;;;;;;;;;;;;;;;1.92;77.14;102473.91;5046687;28;19956;-90
2023/02/11 08:08:51;;;;;;;;;;;;;;;2.00;77.32;102478.88;5054681;28;19927;-90
2023/02/11 08:11:27;;;;;;;;;;;;;;;2.09;77.04;102479.44;5051958;28;20366;-89
2023/02/11 08:13:53;;;;;;;;;;;;;;;2.16;76.31;102476.66;5034960;28;19921;-88
2023/02/11 08:16:19;;;;;;;;;;;;;;;2.23;76.30;102472.94;5071604;28;19919;-88
2023/02/11 08:18:45;;;;;;;;;;;;;;;2.28;75.82;102465.81;5075769;28;19928;-90
2023/02/11 08:21:10;;;;;;;;;;;;;;;2.31;74.83;102463.97;5074165;28;20385;-89
2023/02/11 08:23:37;;;;;;;;;;;;;;;2.42;75.14;102471.44;5066865;28;19974;-90
2023/02/11 08:26:03;;;;;;;;;;;;;;;2.53;75.22;102471.09;5071354;28;20413;-89
2023/02/11 08:28:29;;;;;;;;;;;;;;;2.63;74.81;102472.47;5045911;28;19920;-89
2023/02/11 08:30:57;;;;;;;;;;;;;;;2.71;74.11;102478.28;5050928;28;19929;-90
2023/02/11 08:33:22;;;;;;;;;;;;;;;2.83;74.06;102473.53;5050915;28;20506;-90
2023/02/11 08:35:48;;;;;;;;;;;;;;;2.89;73.26;102475.94;5056365;28;20018;-89
2023/02/11 08:38:13;;;;;;;;;;;;;;;2.99;73.45;102469.47;5044647;28;19921;-90
2023/02/11 08:40:38;;;;;;;;;;;;;;;3.04;73.34;102464.09;5047416;28;19924;-91
2023/02/11 08:43:04;;;;;;;;;;;;;;;3.03;72.99;102467.59;5052237;28;19921;-90
2023/02/11 08:45:29;;;;;;;;;;;;;;;3.02;72.28;102468.50;5060146;28;19925;-90
2023/02/11 08:47:55;;;;;;;;;;;;;;;3.05;72.61;102463.16;5046380;28;19929;-90
2023/02/11 08:50:20;;;;;;;;;;;;;;;3.08;72.51;102461.31;5054412;28;19925;-91
2023/02/11 08:52:45;;;;;;;;;;;;;;;3.09;72.36;102473.44;5049419;28;20148;-90
2023/02/11 08:55:11;;;;;;;;;;;;;;;3.15;71.81;102475.00;5047522;28;19972;-91
2023/02/11 08:57:36;;;;;;;;;;;;;;;3.25;72.21;102483.38;5053181;28;20040;-90
2023/02/11 09:00:02;;;;;;;;;;;;;;;3.31;72.17;102490.97;5047946;28;19952;-90
2023/02/11 09:02:27;;;;;;;;;;;;;;;3.38;72.20;102492.44;5055959;28;19970;-91
2023/02/11 09:04:53;;;;;;;;;;;;;;;3.54;71.59;102492.75;5048680;28;20007;-90
2023/02/11 09:07:18;;;;;;;;;;;;;;;3.56;70.95;102499.63;5037684;28;19925;-89
2023/02/11 09:09:43;;;;;;;;;;;;;;;3.65;71.52;102494.94;5054195;28;19921;-91
2023/02/11 09:12:09;;;;;;;;;;;;;;;3.70;70.75;102498.25;5044214;28;19924;-90
2023/02/11 09:14:34;;;;;;;;;;;;;;;3.75;70.63;102496.31;5049670;28;19928;-91
2023/02/11 09:16:59;;;;;;;;;;;;;;;3.86;70.52;102490.63;5037037;28;19925;-90
2023/02/11 09:19:25;;;;;;;;;;;;;;;3.95;70.08;102501.59;5046054;28;20101;-91
2023/02/11 09:21:50;;;;;;;;;;;;;;;4.07;69.98;102510.72;5044254;28;19924;-90
2023/02/11 09:24:16;;;;;;;;;;;;;;;4.21;69.33;102513.66;5047142;28;19932;-91
2023/02/11 09:26:42;;;;;;;;;;;;;;;4.31;69.32;102519.38;5042788;28;19927;-91
2023/02/11 09:29:11;;;;;;;;;;;;;;;4.44;69.35;102515.34;5042445;28;19974;-91
2023/02/11 09:31:36;;;;;;;;;;;;;;;4.47;67.60;102515.22;5041595;28;19925;-91
2023/02/11 09:34:03;;;;;;;;;;;;;;;4.52;67.99;102503.69;5039939;28;19928;-91
2023/02/11 09:36:31;;;;;;;;;;;;;;;4.60;68.55;102507.72;5055124;28;19920;-91
2023/02/11 09:38:58;;;;;;;;;;;;;;;4.75;67.34;102507.97;5046007;28;19990;-91
2023/02/11 09:41:23;;;;;;;;;;;;;;;4.81;67.51;102505.09;5046769;28;20524;-91
2023/02/11 09:43:50;;;;;;;;;;;;;;;4.93;67.46;102508.94;5039324;28;20012;-91
2023/02/11 09:46:17;;;;;;;;;;;;;;;5.04;66.75;102504.09;5042105;28;20430;-92
2023/02/11 09:48:44;;;;;;;;;;;;;;;5.18;66.59;102496.47;5045200;28;19960;-91
2023/02/11 09:51:39;;;;;;;;;;;;;;;5.35;66.36;102497.50;5049295;28;19960;-91
2023/02/11 09:54:09;;;;;;;;;;;;;;;5.50;65.80;102497.63;5044671;28;19921;-91
2023/02/11 09:56:35;;;;;;;;;;;;;;;5.65;65.50;102493.47;5062215;28;20037;-91
2023/02/11 09:59:00;;;;;;;;;;;;;;;5.81;65.72;102500.59;5068093;28;19909;-91
2023/02/11 10:01:29;;;;;;;;;;;;;;;5.95;65.22;102503.47;5068137;28;19924;-91
2023/02/11 10:03:57;;;;;;;;;;;;;;;6.08;64.99;102514.25;5070509;28;19959;-90
2023/02/11 10:06:29;;;;;;;;;;;;;;;6.04;63.04;102502.19;5055078;28;19962;-88
2023/02/11 10:09:09;;;;;;;;;;;;;;;6.03;62.93;102503.09;5061983;28;20046;-90
2023/02/11 10:11:54;;;;;;;;;;;;;;;6.18;64.08;102505.00;5049706;28;20025;-91
2023/02/11 10:14:25;;;;;;;;;;;;;;;6.32;63.10;102510.41;5042929;28;19925;-93
2023/02/11 10:16:59;;;;;;;;;;;;;;;6.35;61.19;102507.63;5044841;28;19943;-92
2023/02/11 10:19:27;;;;;;;;;;;;;;;6.41;62.20;102501.22;5052483;28;19929;-91
2023/02/11 10:21:53;;;;;;;;;;;;;;;6.38;61.20;102504.00;5045540;28;20302;-92
2023/02/11 10:24:19;;;;;;;;;;;;;;;6.56;61.29;102503.09;5036994;28;19929;-92
2023/02/11 10:26:44;;;;;;;;;;;;;;;6.73;61.43;102506.66;5043913;28;19952;-92
2023/02/11 10:29:33;;;;;;;;;;;;;;;6.90;61.84;102505.78;5049169;28;19932;-90
2023/02/11 10:32:00;;;;;;;;;;;;;;;6.94;61.60;102500.28;5035049;28;19921;-91
2023/02/11 10:34:25;;;;;;;;;;;;;;;7.10;60.69;102496.84;5045071;28;20382;-92
2023/02/11 10:36:51;;;;;;;;;;;;;;;7.29;61.04;102502.81;5059080;28;19917;-91
2023/02/11 10:39:17;;;;;;;;;;;;;;;7.34;60.14;102500.81;5037814;28;19929;-92
2023/02/11 10:41:45;;;;;;;;;;;;;;;7.54;61.48;102499.72;5050705;28;20249;-91
2023/02/11 10:44:29;;;;;;;;;;;;;;;7.55;59.79;102496.16;5034955;28;19923;-91
2023/02/11 10:46:55;;;;;;;;;;;;;;;7.48;60.38;102491.31;5040039;28;19928;-92
2023/02/11 10:49:40;;;;;;;;;;;;;;;7.57;60.74;102488.19;5039263;28;19975;-92
2023/02/11 10:52:20;;;;;;;;;;;;;;;7.56;60.29;102500.50;5050486;28;19933;-91
2023/02/11 10:55:00;;;;;;;;;;;;;;;7.63;60.26;102490.50;5040455;28;20575;-92
2023/02/11 10:57:28;;;;;;;;;;;;;;;7.52;60.00;102498.13;5063631;28;19917;-91
2023/02/11 10:59:58;;;;;;;;;;;;;;;7.79;61.05;102493.94;5059010;28;20158;-92
2023/02/11 11:02:30;;;;;;;;;;;;;;;8.02;58.79;102497.94;5054804;28;20004;-92
2023/02/11 11:04:57;;;;;;;;;;;;;;;8.54;60.72;102488.00;5050300;28;19917;-91
2023/02/11 11:07:28;;;;;;;;;;;;;;;9.07;59.04;102497.13;5048665;28;19917;-92
2023/02/11 11:09:55;;;;;;;;;;;;;;;9.80;59.11;102489.03;5055462;28;20267;-92
2023/02/11 11:12:26;;;;;;;;;;;;;;;10.18;53.17;102493.66;5065971;28;20005;-90
2023/02/11 11:15:00;;;;;;;;;;;;;;;10.15;53.72;102496.47;5066685;28;19921;-92
2023/02/11 11:17:28;;;;;;;;;;;;;;;9.96;51.96;102496.81;5061695;28;19917;-91
2023/02/11 11:20:12;;;;;;;;;;;;;;;10.04;56.03;102501.63;5071151;28;20000;-92
2023/02/11 11:22:38;;;;;;;;;;;;;;;10.33;56.67;102505.03;5056485;28;19988;-90
2023/02/11 11:25:03;;;;;;;;;;;;;;;10.88;55.08;102506.59;5079240;28;19916;-92
2023/02/11 11:27:29;;;;;;;;;;;;;;;11.62;51.76;102504.94;5068048;28;19921;-92
2023/02/11 11:29:55;;;;;;;;;;;;;;;12.11;51.22;102513.81;5060528;28;19917;-92
2023/02/11 11:32:26;;;;;;;;;;;;;;;12.19;49.69;102515.91;5067779;28;19920;-91
2023/02/11 11:34:55;;;;;;;;;;;;;;;12.60;52.19;102518.09;5068699;28;19950;-92
2023/02/11 11:37:33;;;;;;;;;;;;;;;12.32;53.13;102522.84;5067488;28;19924;-92
2023/02/11 11:40:02;;;;;;;;;;;;;;;11.82;48.21;102524.72;5056411;28;20398;-92
2023/02/11 11:42:31;;;;;;;;;;;;;;;11.12;49.35;102522.59;5061043;28;19920;-91
2023/02/11 11:44:57;;;;;;;;;;;;;;;10.98;54.30;102512.09;5087653;28;19922;-92
2023/02/11 11:47:29;;;;;;;;;;;;;;;10.98;54.95;102522.69;5068760;28;19936;-92
2023/02/11 11:50:14;;;;;;;;;;;;;;;10.80;54.58;102512.41;5072209;28;19923;-92
2023/02/11 11:52:44;;;;;;;;;;;;;;;10.59;52.09;102492.72;5069581;28;19916;-92
2023/02/11 11:55:21;;;;;;;;;;;;;;;10.20;54.00;102497.00;5066917;28;19939;-91
2023/02/11 11:57:46;;;;;;;;;;;;;;;9.82;53.89;102486.28;5072159;28;19917;-91
2023/02/11 12:00:25;;;;;;;;;;;;;;;9.66;54.42;102486.44;5071503;28;19925;-91
2023/02/11 12:02:53;;;;;;;;;;;;;;;9.72;53.08;102473.66;5062419;28;19932;-91
2023/02/11 12:05:25;;;;;;;;;;;;;;;9.59;53.93;102464.84;5058325;28;19927;-92
2023/02/11 12:08:10;;;;;;;;;;;;;;;9.53;55.21;102459.94;5056797;28;19917;-92
2023/02/11 12:10:41;;;;;;;;;;;;;;;9.82;54.88;102457.22;5070094;28;19953;-91
2023/02/11 12:13:15;;;;;;;;;;;;;;;9.87;54.22;102450.72;5055243;28;19917;-91
2023/02/11 12:15:53;;;;;;;;;;;;;;;10.31;54.59;102459.31;5063967;28;19931;-91
2023/02/11 12:18:18;;;;;;;;;;;;;;;10.49;53.97;102462.56;5064550;28;19917;-92
2023/02/11 12:20:49;;;;;;;;;;;;;;;10.31;53.54;102462.81;5064856;28;20406;-92
2023/02/11 12:23:25;;;;;;;;;;;;;;;10.16;53.58;102464.66;5047301;28;19921;-91
2023/02/11 12:26:03;;;;;;;;;;;;;;;10.00;53.71;102462.16;5061498;28;19917;-91
2023/02/11 12:28:36;;;;;;;;;;;;;;;9.78;54.01;102461.88;5070535;28;20335;-91
2023/02/11 12:31:13;;;;;;;;;;;;;;;9.62;54.50;102462.00;5064742;28;19917;-91
2023/02/11 12:34:00;;;;;;;;;;;;;;;9.53;54.57;102462.59;5060102;28;19924;-91
2023/02/11 12:36:34;;;;;;;;;;;;;;;9.40;55.73;102469.59;5080179;28;19928;-91
2023/02/11 12:39:11;;;;;;;;;;;;;;;9.46;55.77;102463.91;5061012;28;20132;-92
2023/02/11 12:44:54;;;;;;;;;;;;;;;9.45;55.29;102460.44;5044185;28;20428;-91
2023/02/11 12:47:28;;;;;;;;;;;;;;;9.40;55.50;102459.88;5050898;28;20003;-91
2023/02/11 12:50:01;;;;;;;;;;;;;;;9.45;55.86;102465.72;5060219;28;19942;-92
2023/02/11 12:52:38;;;;;;;;;;;;;;;9.53;55.40;102466.09;5061359;28;19967;-91
2023/02/11 12:55:10;;;;;;;;;;;;;;;9.50;56.08;102458.34;5063454;28;19961;-91
2023/02/11 12:57:37;;;;;;;;;;;;;;;9.61;55.76;102454.19;5051356;28;19923;-91